createdAt,value
2019-01-25T00:01:05.669Z,-2.59
2019-01-25T00:03:34.356Z,-2.60
2019-01-25T00:06:02.955Z,-2.61
2019-01-25T00:08:31.532Z,-2.61
2019-01-25T00:11:00.101Z,-2.68
2019-01-25T00:13:28.811Z,-2.59
2019-01-25T00:15:57.452Z,-2.57
2019-01-25T00:18:26.094Z,-2.56
2019-01-25T00:20:55.946Z,-2.56
2019-01-25T00:23:24.649Z,-2.61
2019-01-25T00:25:53.231Z,-2.59
2019-01-25T00:28:21.944Z,-2.63
2019-01-25T00:30:50.952Z,-2.63
2019-01-25T00:33:19.536Z,-2.67
2019-01-25T00:35:48.183Z,-2.67
2019-01-25T00:38:16.823Z,-2.68
2019-01-25T00:40:45.418Z,-2.71
2019-01-25T00:43:14.130Z,-2.79
2019-01-25T00:45:42.748Z,-2.79
2019-01-25T00:48:11.368Z,-2.82
2019-01-25T00:50:40.039Z,-2.84
2019-01-25T00:53:08.711Z,-2.89
2019-01-25T00:55:37.499Z,-2.90
2019-01-25T00:58:06.614Z,-2.84
2019-01-25T01:00:35.411Z,-2.79
2019-01-25T01:03:04.321Z,-2.82
2019-01-25T01:05:32.935Z,-2.83
2019-01-25T01:08:01.507Z,-2.83
2019-01-25T01:10:30.130Z,-2.82
2019-01-25T01:12:58.704Z,-2.88
2019-01-25T01:15:27.688Z,-2.88
2019-01-25T01:17:56.452Z,-2.87
2019-01-25T01:20:25.145Z,-2.89
2019-01-25T01:22:53.756Z,-2.90
2019-01-25T01:25:22.418Z,-2.97
2019-01-25T01:27:50.976Z,-2.97
2019-01-25T01:30:21.942Z,-2.98
2019-01-25T01:32:50.605Z,-2.99
2019-01-25T01:35:19.424Z,-3.02
2019-01-25T01:37:48.295Z,-3.00
2019-01-25T01:40:22.100Z,-3.03
2019-01-25T01:42:49.244Z,-3.03
2019-01-25T01:45:17.924Z,-3.01
2019-01-25T01:47:46.521Z,-2.98
2019-01-25T01:50:15.851Z,-3.00
2019-01-25T01:52:45.219Z,-2.92
2019-01-25T01:55:14.041Z,-3.02
2019-01-25T01:57:42.697Z,-2.94
2019-01-25T02:00:20.859Z,-2.93
2019-01-25T02:02:49.545Z,-2.94
2019-01-25T02:05:18.152Z,-2.93
2019-01-25T02:07:46.764Z,-2.96
2019-01-25T02:10:18.158Z,-2.85
2019-01-25T02:12:46.723Z,-2.87
2019-01-25T02:15:16.650Z,-2.91
2019-01-25T02:17:45.271Z,-2.94
2019-01-25T02:20:16.988Z,-2.89
2019-01-25T02:22:45.583Z,-2.90
2019-01-25T02:25:14.368Z,-2.85
2019-01-25T02:27:42.974Z,-2.88
2019-01-25T02:30:14.716Z,-2.94
2019-01-25T02:32:43.369Z,-2.92
2019-01-25T02:35:11.988Z,-2.97
2019-01-25T02:37:40.598Z,-2.99
2019-01-25T02:40:10.461Z,-2.90
2019-01-25T02:42:39.085Z,-3.00
2019-01-25T02:45:09.339Z,-2.98
2019-01-25T02:47:37.974Z,-2.96
2019-01-25T02:50:09.024Z,-2.93
2019-01-25T02:52:37.665Z,-3.00
2019-01-25T02:55:06.577Z,-3.02
2019-01-25T02:57:35.185Z,-3.03
2019-01-25T03:00:05.230Z,-3.03
2019-01-25T03:02:33.882Z,-3.00
2019-01-25T03:05:02.517Z,-2.96
2019-01-25T03:07:31.149Z,-2.95
2019-01-25T03:09:59.751Z,-2.95
2019-01-25T03:12:28.376Z,-2.94
2019-01-25T03:14:56.976Z,-2.93
2019-01-25T03:17:25.636Z,-2.97
2019-01-25T03:19:54.316Z,-2.97
2019-01-25T03:22:22.965Z,-2.87
2019-01-25T03:24:51.541Z,-2.90
2019-01-25T03:27:20.126Z,-2.92
2019-01-25T03:29:48.726Z,-2.82
2019-01-25T03:32:17.350Z,-2.93
2019-01-25T03:34:45.928Z,-3.00
2019-01-25T03:37:14.523Z,-3.03
2019-01-25T03:39:43.165Z,-3.00
2019-01-25T03:42:11.868Z,-3.06
2019-01-25T03:44:40.490Z,-2.96
2019-01-25T03:47:09.124Z,-3.02
2019-01-25T03:49:37.773Z,-2.95
2019-01-25T03:52:06.394Z,-3.00
2019-01-25T03:54:35.015Z,-3.00
2019-01-25T03:57:03.656Z,-3.04
2019-01-25T03:59:32.235Z,-2.96
2019-01-25T04:02:00.872Z,-3.07
2019-01-25T04:04:29.457Z,-3.06
2019-01-25T04:06:58.087Z,-3.06
2019-01-25T04:09:26.650Z,-3.06
2019-01-25T04:11:55.252Z,-3.07
2019-01-25T04:14:23.844Z,-3.09
2019-01-25T04:16:52.451Z,-3.10
2019-01-25T04:19:21.055Z,-3.09
2019-01-25T04:21:49.670Z,-3.02
2019-01-25T04:24:18.306Z,-3.07
2019-01-25T04:26:46.917Z,-3.14
2019-01-25T04:29:15.527Z,-3.16
2019-01-25T04:31:44.104Z,-3.15
2019-01-25T04:34:12.748Z,-3.10
2019-01-25T04:36:41.412Z,-3.10
2019-01-25T04:39:10.041Z,-3.11
2019-01-25T04:41:38.688Z,-2.95
2019-01-25T04:44:07.555Z,-3.00
2019-01-25T04:46:36.153Z,-3.08
2019-01-25T04:49:04.779Z,-3.08
2019-01-25T04:51:33.385Z,-3.05
2019-01-25T04:54:01.991Z,-3.03
2019-01-25T04:56:32.089Z,-3.03
2019-01-25T04:59:00.690Z,-2.98
2019-01-25T05:01:29.246Z,-2.99
2019-01-25T05:03:57.872Z,-2.99
2019-01-25T05:06:26.464Z,-3.04
2019-01-25T05:08:55.159Z,-3.05
2019-01-25T05:11:23.950Z,-3.07
2019-01-25T05:13:52.652Z,-2.97
2019-01-25T05:16:22.192Z,-2.98
2019-01-25T05:18:50.829Z,-3.02
2019-01-25T05:21:24.254Z,-3.03
2019-01-25T05:23:52.983Z,-3.00
2019-01-25T05:26:21.680Z,-2.99
2019-01-25T05:28:50.314Z,-2.92
2019-01-25T05:31:21.604Z,-2.92
2019-01-25T05:33:55.155Z,-2.95
2019-01-25T05:36:23.784Z,-2.98
2019-01-25T05:38:52.393Z,-2.96
2019-01-25T05:41:28.163Z,-2.92
2019-01-25T05:43:51.412Z,-2.96
2019-01-25T05:46:20.011Z,-2.94
2019-01-25T05:48:48.669Z,-2.93
2019-01-25T05:51:17.227Z,-2.91
2019-01-25T05:53:50.552Z,-2.97
2019-01-25T05:56:19.222Z,-2.98
2019-01-25T05:58:47.835Z,-2.99
2019-01-25T06:01:16.484Z,-2.99
2019-01-25T06:03:45.089Z,-2.86
2019-01-25T06:06:13.689Z,-2.83
2019-01-25T06:08:44.077Z,-2.85
2019-01-25T06:11:13.411Z,-2.88
2019-01-25T06:13:45.963Z,-2.85
2019-01-25T06:16:14.968Z,-2.71
2019-01-25T06:18:43.658Z,-2.73
2019-01-25T06:21:12.294Z,-2.76
2019-01-25T06:23:41.461Z,-2.76
2019-01-25T06:26:11.249Z,-2.79
2019-01-25T06:28:39.890Z,-2.67
2019-01-25T06:31:08.539Z,-2.71
2019-01-25T06:33:37.207Z,-2.64
2019-01-25T06:36:07.326Z,-2.71
2019-01-25T06:38:36.393Z,-2.74
2019-01-25T06:41:05.700Z,-2.62
2019-01-25T06:43:34.281Z,-2.62
2019-01-25T06:46:02.845Z,-2.67
2019-01-25T06:48:31.440Z,-2.53
2019-01-25T06:51:00.159Z,-2.64
2019-01-25T06:53:28.794Z,-2.58
2019-01-25T06:55:57.380Z,-2.75
2019-01-25T06:58:44.477Z,-2.78
2019-01-25T07:01:38.132Z,-2.82
2019-01-25T07:04:06.728Z,-2.86
2019-01-25T07:06:35.506Z,-2.86
2019-01-25T07:09:07.035Z,-2.86
2019-01-25T07:11:42.035Z,-2.84
2019-01-25T07:14:06.078Z,-2.83
2019-01-25T07:16:34.735Z,-2.73
2019-01-25T07:19:03.712Z,-2.79
2019-01-25T07:21:32.302Z,-2.79
2019-01-25T07:24:00.915Z,-2.76
2019-01-25T07:26:29.503Z,-2.68
2019-01-25T07:28:58.164Z,-2.66
2019-01-25T07:31:26.907Z,-2.64
2019-01-25T07:33:55.523Z,-2.56
2019-01-25T07:36:24.211Z,-2.53
2019-01-25T07:38:53.509Z,-2.49
2019-01-25T07:41:22.130Z,-2.49
2019-01-25T07:43:50.709Z,-2.48
2019-01-25T07:46:19.313Z,-2.45
2019-01-25T07:48:47.975Z,-2.49
2019-01-25T07:51:16.612Z,-2.44
2019-01-25T07:53:45.254Z,-2.43
2019-01-25T07:56:13.879Z,-2.41
2019-01-25T07:58:42.479Z,-2.38
2019-01-25T08:01:11.692Z,-2.30
2019-01-25T08:03:40.757Z,-2.31
2019-01-25T08:06:09.463Z,-2.31
2019-01-25T08:08:38.180Z,-2.31
2019-01-25T08:11:06.914Z,-2.32
2019-01-25T08:13:35.565Z,-2.29
2019-01-25T08:16:04.150Z,-2.26
2019-01-25T08:18:32.767Z,-2.17
2019-01-25T08:21:01.388Z,-2.15
2019-01-25T08:23:30.004Z,-2.15
2019-01-25T08:25:58.552Z,-2.15
2019-01-25T08:28:27.136Z,-2.17
2019-01-25T08:30:55.768Z,-2.09
2019-01-25T08:33:24.509Z,-2.10
2019-01-25T08:35:53.202Z,-2.15
2019-01-25T08:38:21.829Z,-2.22
2019-01-25T08:40:50.600Z,-2.23
2019-01-25T08:43:19.161Z,-2.21
2019-01-25T08:45:49.489Z,-2.24
2019-01-25T08:48:18.329Z,-2.21
2019-01-25T08:50:46.995Z,-2.10
2019-01-25T08:53:16.201Z,-2.13
2019-01-25T08:55:44.922Z,-2.13
2019-01-25T08:58:13.909Z,-2.12
2019-01-25T09:00:42.737Z,-2.08
2019-01-25T09:03:11.386Z,-2.01
2019-01-25T09:05:40.075Z,-1.98
2019-01-25T09:08:08.708Z,-1.84
2019-01-25T09:10:37.341Z,-1.81
2019-01-25T09:13:05.916Z,-1.90
2019-01-25T09:15:34.915Z,-1.88
2019-01-25T09:18:03.556Z,-1.85
2019-01-25T09:20:32.387Z,-2.04
2019-01-25T09:23:01.030Z,-1.65
2019-01-25T09:25:29.618Z,-1.67
2019-01-25T09:27:58.242Z,-1.76
2019-01-25T09:30:26.909Z,-1.65
2019-01-25T09:32:55.553Z,-1.66
2019-01-25T09:35:24.587Z,-1.66
2019-01-25T09:37:53.278Z,-1.57
2019-01-25T09:40:23.575Z,-1.55
2019-01-25T09:42:52.588Z,-1.58
2019-01-25T09:45:21.550Z,-1.59
2019-01-25T09:47:50.159Z,-1.58
2019-01-25T09:50:19.062Z,-1.58
2019-01-25T09:52:48.022Z,-1.58
2019-01-25T09:55:18.811Z,-1.51
2019-01-25T09:57:48.151Z,-1.50
2019-01-25T10:00:25.923Z,-1.76
2019-01-25T10:02:54.880Z,-1.34
2019-01-25T10:05:23.766Z,-1.23
2019-01-25T10:07:52.432Z,-1.32
2019-01-25T10:10:21.424Z,-1.21
2019-01-25T10:12:50.052Z,-1.12
2019-01-25T10:15:20.807Z,-1.19
2019-01-25T10:17:49.432Z,-1.07
2019-01-25T10:20:19.005Z,-0.91
2019-01-25T10:22:47.735Z,-0.76
2019-01-25T10:25:16.373Z,-0.63
2019-01-25T10:27:45.099Z,-0.53
2019-01-25T10:30:16.709Z,-0.67
2019-01-25T10:32:45.319Z,-0.62
2019-01-25T10:35:13.962Z,-0.58
2019-01-25T10:37:42.615Z,-0.34
2019-01-25T10:40:14.665Z,-0.30
2019-01-25T10:42:45.566Z,-0.14
2019-01-25T10:45:17.411Z,-0.09
2019-01-25T10:47:46.067Z,-0.10
2019-01-25T10:50:14.692Z,-0.06
2019-01-25T10:52:43.313Z,0.12
2019-01-25T10:55:12.080Z,-0.05
2019-01-25T10:57:40.716Z,-0.15
2019-01-25T11:00:11.965Z,-0.03
2019-01-25T11:02:40.587Z,-0.09
2019-01-25T11:05:11.633Z,-0.23
2019-01-25T11:07:40.314Z,-0.32
2019-01-25T11:10:10.507Z,-0.13
2019-01-25T11:12:39.113Z,-0.33
2019-01-25T11:15:10.047Z,-0.31
2019-01-25T11:17:38.680Z,-0.21
2019-01-25T11:20:11.005Z,-0.26
2019-01-25T11:22:39.609Z,-0.22
2019-01-25T11:25:11.549Z,-0.23
2019-01-25T11:27:40.130Z,-0.18
2019-01-25T11:30:10.028Z,-0.03
2019-01-25T11:32:38.631Z,0.17
2019-01-25T11:35:07.373Z,0.25
2019-01-25T11:37:36.051Z,0.37
2019-01-25T11:40:07.679Z,0.19
2019-01-25T11:42:36.246Z,0.32
2019-01-25T11:45:05.444Z,0.13
2019-01-25T11:47:34.097Z,0.17
2019-01-25T11:50:02.763Z,0.29
2019-01-25T11:52:31.403Z,0.46
2019-01-25T11:55:00.003Z,0.63
2019-01-25T11:57:28.682Z,0.61
2019-01-25T11:59:57.332Z,0.62
2019-01-25T12:02:25.941Z,0.76
2019-01-25T12:04:54.653Z,0.84
2019-01-25T12:07:23.277Z,1.14
2019-01-25T12:09:51.908Z,1.36
2019-01-25T12:12:20.806Z,1.15
2019-01-25T12:14:49.462Z,1.31
2019-01-25T12:17:18.127Z,1.25
2019-01-25T12:19:46.729Z,1.30
2019-01-25T12:22:15.328Z,1.19
2019-01-25T12:24:44.283Z,1.11
2019-01-25T12:27:12.863Z,1.20
2019-01-25T12:29:41.549Z,1.26
2019-01-25T12:32:10.418Z,1.33
2019-01-25T12:34:39.244Z,1.29
2019-01-25T12:37:07.835Z,1.70
2019-01-25T12:39:36.477Z,2.12
2019-01-25T12:42:05.387Z,2.51
2019-01-25T12:44:34.034Z,2.81
2019-01-25T12:47:02.617Z,2.93
2019-01-25T12:49:31.243Z,2.78
2019-01-25T12:52:08.168Z,2.74
2019-01-25T12:54:33.993Z,2.17
2019-01-25T12:57:02.648Z,2.23
2019-01-25T12:59:31.235Z,2.45
2019-01-25T13:02:00.439Z,2.64
2019-01-25T13:04:29.046Z,2.61
2019-01-25T13:06:57.712Z,2.62
2019-01-25T13:09:26.390Z,2.81
2019-01-25T13:11:55.125Z,2.83
2019-01-25T13:14:23.732Z,2.69
2019-01-25T13:16:52.449Z,2.57
2019-01-25T13:19:21.459Z,2.50
2019-01-25T13:21:50.043Z,2.74
2019-01-25T13:24:18.659Z,2.64
2019-01-25T13:26:47.282Z,2.50
2019-01-25T13:29:15.914Z,2.21
2019-01-25T13:31:44.818Z,2.01
2019-01-25T13:34:13.509Z,1.92
2019-01-25T13:36:42.087Z,1.76
2019-01-25T13:39:10.949Z,1.89
2019-01-25T13:41:39.540Z,1.70
2019-01-25T13:44:08.143Z,1.62
2019-01-25T13:46:36.728Z,1.42
2019-01-25T13:49:05.388Z,1.34
2019-01-25T13:51:33.999Z,1.37
2019-01-25T13:54:02.627Z,1.36
2019-01-25T13:56:31.239Z,1.46
2019-01-25T13:58:59.884Z,1.51
2019-01-25T14:01:34.604Z,1.67
2019-01-25T14:03:58.948Z,1.77
2019-01-25T14:06:27.551Z,1.74
2019-01-25T14:08:56.245Z,1.77
2019-01-25T14:11:25.071Z,1.77
2019-01-25T14:13:53.809Z,1.74
2019-01-25T14:16:22.407Z,1.82
2019-01-25T14:18:52.219Z,1.69
2019-01-25T14:21:21.132Z,1.55
2019-01-25T14:23:49.763Z,1.60
2019-01-25T14:26:18.410Z,1.58
2019-01-25T14:28:47.056Z,1.74
2019-01-25T14:31:15.703Z,1.67
2019-01-25T14:33:44.354Z,1.67
2019-01-25T14:36:12.971Z,1.85
2019-01-25T14:38:41.600Z,2.13
2019-01-25T14:41:10.196Z,2.08
2019-01-25T14:43:39.185Z,2.06
2019-01-25T14:46:07.805Z,1.93
2019-01-25T14:48:38.191Z,1.82
2019-01-25T14:51:06.986Z,1.88
2019-01-25T14:53:36.306Z,1.94
2019-01-25T14:56:04.903Z,1.86
2019-01-25T14:58:34.170Z,1.79
2019-01-25T15:01:02.787Z,1.71
2019-01-25T15:03:31.430Z,1.67
2019-01-25T15:05:59.999Z,1.62
2019-01-25T15:08:28.587Z,1.53
2019-01-25T15:10:57.217Z,1.50
2019-01-25T15:13:25.875Z,1.49
2019-01-25T15:15:54.572Z,1.50
2019-01-25T15:18:23.255Z,1.45
2019-01-25T15:20:51.888Z,1.48
2019-01-25T15:23:20.506Z,1.48
2019-01-25T15:25:49.131Z,1.50
2019-01-25T15:28:17.828Z,1.58
2019-01-25T15:30:46.549Z,1.57
2019-01-25T15:33:15.186Z,1.53
2019-01-25T15:35:43.806Z,1.57
2019-01-25T15:38:12.463Z,1.52
2019-01-25T15:40:41.051Z,1.48
2019-01-25T15:43:09.656Z,1.50
2019-01-25T15:45:38.306Z,1.51
2019-01-25T15:48:07.447Z,1.52
2019-01-25T15:50:36.030Z,1.48
2019-01-25T15:53:04.888Z,1.46
2019-01-25T15:55:33.848Z,1.45
2019-01-25T15:58:02.504Z,1.44
2019-01-25T16:00:31.253Z,1.46
2019-01-25T16:02:59.866Z,1.45
2019-01-25T16:05:28.537Z,1.43
2019-01-25T16:07:57.205Z,1.35
2019-01-25T16:10:25.822Z,1.34
2019-01-25T16:12:54.652Z,1.33
2019-01-25T16:15:25.387Z,1.35
2019-01-25T16:17:53.986Z,1.21
2019-01-25T16:20:22.646Z,1.14
2019-01-25T16:22:51.396Z,1.08
2019-01-25T16:25:22.594Z,1.00
2019-01-25T16:27:51.462Z,1.03
2019-01-25T16:30:22.445Z,1.02
2019-01-25T16:32:51.316Z,0.95
2019-01-25T16:35:19.997Z,0.98
2019-01-25T16:37:48.678Z,0.96
2019-01-25T16:40:18.327Z,0.95
2019-01-25T16:42:46.980Z,0.93
2019-01-25T16:45:21.432Z,0.94
2019-01-25T16:47:50.076Z,0.82
2019-01-25T16:50:23.589Z,0.93
2019-01-25T16:52:49.513Z,0.94
2019-01-25T16:55:18.132Z,0.97
2019-01-25T16:57:46.763Z,0.96
2019-01-25T17:00:29.635Z,0.94
2019-01-25T17:02:58.346Z,0.96
2019-01-25T17:05:27.021Z,0.95
2019-01-25T17:07:55.640Z,0.94
2019-01-25T17:10:24.354Z,0.95
2019-01-25T17:12:53.038Z,0.95
2019-01-25T17:15:21.789Z,0.94
2019-01-25T17:17:50.364Z,0.93
2019-01-25T17:20:21.486Z,0.92
2019-01-25T17:22:51.975Z,0.91
2019-01-25T17:25:20.645Z,0.90
2019-01-25T17:27:49.255Z,0.93
2019-01-25T17:30:25.833Z,0.93
2019-01-25T17:32:55.502Z,0.97
2019-01-25T17:35:24.339Z,0.93
2019-01-25T17:37:53.045Z,0.87
2019-01-25T17:40:23.812Z,0.89
2019-01-25T17:42:52.463Z,0.94
2019-01-25T17:45:21.123Z,0.94
2019-01-25T17:47:49.764Z,0.89
2019-01-25T17:50:18.454Z,0.89
2019-01-25T17:52:47.105Z,0.90
2019-01-25T17:55:15.926Z,0.93
2019-01-25T17:57:44.546Z,0.86
2019-01-25T18:00:21.661Z,0.87
2019-01-25T18:02:50.604Z,0.91
2019-01-25T18:05:19.228Z,0.86
2019-01-25T18:07:47.908Z,0.87
2019-01-25T18:10:16.897Z,0.86
2019-01-25T18:12:45.778Z,0.89
2019-01-25T18:15:14.672Z,0.85
2019-01-25T18:17:43.379Z,0.89
2019-01-25T18:20:14.143Z,0.86
2019-01-25T18:22:42.900Z,0.88
2019-01-25T18:25:13.611Z,0.86
2019-01-25T18:27:45.729Z,0.87
2019-01-25T18:30:22.272Z,0.86
2019-01-25T18:32:51.339Z,0.86
2019-01-25T18:35:19.956Z,0.81
2019-01-25T18:37:48.627Z,0.81
2019-01-25T18:40:17.253Z,0.81
2019-01-25T18:42:47.698Z,0.85
2019-01-25T18:45:16.741Z,0.84
2019-01-25T18:47:45.902Z,0.83
2019-01-25T18:50:15.254Z,0.85
2019-01-25T18:52:44.014Z,0.85
2019-01-25T18:55:15.316Z,0.86
2019-01-25T18:57:44.006Z,0.85
2019-01-25T19:00:15.742Z,0.84
2019-01-25T19:02:44.477Z,0.80
2019-01-25T19:05:13.154Z,0.79
2019-01-25T19:07:42.108Z,0.80
2019-01-25T19:10:14.138Z,0.74
2019-01-25T19:12:42.953Z,0.74
2019-01-25T19:15:13.300Z,0.69
2019-01-25T19:17:41.970Z,0.64
2019-01-25T19:20:12.027Z,0.59
2019-01-25T19:22:41.113Z,0.52
2019-01-25T19:25:10.030Z,0.46
2019-01-25T19:27:38.719Z,0.37
2019-01-25T19:30:12.667Z,0.30
2019-01-25T19:32:41.339Z,0.26
2019-01-25T19:35:10.149Z,0.23
2019-01-25T19:37:38.773Z,0.25
2019-01-25T19:40:10.007Z,0.18
2019-01-25T19:42:41.466Z,0.06
2019-01-25T19:45:12.047Z,-0.03
2019-01-25T19:47:40.791Z,-0.03
2019-01-25T19:50:11.437Z,0.01
2019-01-25T19:52:40.051Z,0.01
2019-01-25T19:55:11.766Z,-0.11
2019-01-25T19:57:40.554Z,-0.12
2019-01-25T20:00:14.804Z,-0.10
2019-01-25T20:02:43.492Z,-0.19
2019-01-25T20:05:12.940Z,-0.22
2019-01-25T20:07:41.689Z,-0.21
2019-01-25T20:10:11.048Z,-0.28
2019-01-25T20:12:39.744Z,-0.28
2019-01-25T20:15:10.307Z,-0.28
2019-01-25T20:17:41.265Z,-0.31
2019-01-25T20:20:13.655Z,-0.33
2019-01-25T20:22:42.576Z,-0.34
2019-01-25T20:25:11.508Z,-0.34
2019-01-25T20:27:40.221Z,-0.34
2019-01-25T20:30:12.324Z,-0.30
2019-01-25T20:32:41.128Z,-0.29
2019-01-25T20:35:13.682Z,-0.33
2019-01-25T20:37:42.576Z,-0.36
2019-01-25T20:40:13.202Z,-0.34
2019-01-25T20:42:41.875Z,-0.35
2019-01-25T20:45:13.760Z,-0.35
2019-01-25T20:47:42.505Z,-0.34
2019-01-25T20:50:13.874Z,-0.34
2019-01-25T20:52:42.600Z,-0.33
2019-01-25T20:55:17.095Z,-0.35
2019-01-25T20:57:45.961Z,-0.31
2019-01-25T21:00:17.556Z,-0.33
2019-01-25T21:02:46.241Z,-0.33
2019-01-25T21:05:15.076Z,-0.31
2019-01-25T21:07:43.867Z,-0.30
2019-01-25T21:10:14.643Z,-0.29
2019-01-25T21:12:43.451Z,-0.49
2019-01-25T21:15:13.746Z,-0.30
2019-01-25T21:17:42.558Z,-0.38
2019-01-25T21:20:14.354Z,-0.31
2019-01-25T21:22:42.975Z,-0.33
2019-01-25T21:25:11.904Z,-0.34
2019-01-25T21:27:40.859Z,-0.36
2019-01-25T21:30:13.427Z,-0.28
2019-01-25T21:32:42.221Z,-0.25
2019-01-25T21:35:10.827Z,-0.22
2019-01-25T21:37:39.629Z,-0.25
2019-01-25T21:40:11.224Z,-0.26
2019-01-25T21:42:39.867Z,-0.26
2019-01-25T21:45:10.862Z,-0.23
2019-01-25T21:47:39.488Z,-0.17
2019-01-25T21:50:28.697Z,-0.18
2019-01-25T21:52:57.331Z,-0.15
2019-01-25T21:55:25.959Z,-0.06
2019-01-25T21:57:54.686Z,-0.12
2019-01-25T22:00:25.796Z,-0.12
2019-01-25T22:02:54.452Z,-0.12
2019-01-25T22:05:23.077Z,-0.13
2019-01-25T22:07:51.696Z,-0.15
2019-01-25T22:10:25.964Z,-0.14
2019-01-25T22:12:54.613Z,-0.11
2019-01-25T22:15:23.206Z,-0.12
2019-01-25T22:17:51.841Z,-0.14
2019-01-25T22:20:25.040Z,-0.11
2019-01-25T22:22:53.686Z,-0.10
2019-01-25T22:25:22.410Z,-0.13
2019-01-25T22:27:52.446Z,-0.08
2019-01-25T22:30:22.849Z,-0.02
2019-01-25T22:32:51.563Z,-0.07
2019-01-25T22:35:20.222Z,-0.07
2019-01-25T22:37:48.848Z,-0.06
2019-01-25T22:40:19.696Z,-0.05
2019-01-25T22:42:48.352Z,-0.04
2019-01-25T22:45:19.067Z,0.03
2019-01-25T22:47:50.399Z,0.05
2019-01-25T22:50:21.248Z,0.06
2019-01-25T22:52:49.844Z,0.12
2019-01-25T22:55:18.748Z,0.10
2019-01-25T22:57:47.376Z,0.15
2019-01-25T23:00:52.688Z,0.16
2019-01-25T23:03:28.096Z,0.22
2019-01-25T23:06:26.668Z,0.24
2019-01-25T23:08:55.564Z,0.26
2019-01-25T23:11:26.501Z,0.26
2019-01-25T23:13:55.191Z,0.26
2019-01-25T23:16:23.969Z,0.26
2019-01-25T23:18:52.544Z,0.25
2019-01-25T23:21:21.146Z,0.29
2019-01-25T23:23:49.756Z,0.23
2019-01-25T23:26:18.336Z,0.29
2019-01-25T23:28:46.977Z,0.29
2019-01-25T23:31:15.607Z,0.26
2019-01-25T23:33:44.244Z,0.27
2019-01-25T23:36:12.851Z,0.29
2019-01-25T23:38:41.468Z,0.29
2019-01-25T23:41:10.079Z,0.26
2019-01-25T23:43:38.717Z,0.28
2019-01-25T23:46:13.681Z,0.32
2019-01-25T23:48:37.655Z,0.29
2019-01-25T23:51:06.297Z,0.34
2019-01-25T23:53:34.910Z,0.35
2019-01-25T23:56:03.851Z,0.37
2019-01-25T23:58:32.487Z,0.40
